Time;durP1;ratioP1;P1;durP2;ratioP2;P2;SDS_P1;SDS_P2;PMS_P1;PMS_P2;Temp;Humidity;BMP_temperature;BMP_pressure;BME280_temperature;BME280_humidity;BME280_pressure;Samples;Min_cycle;Max_cycle;Signal;HPM_P1;HPM_P2
2023/06/12 00:01:20;;;;;;;8.85;5.13;;;;;;;23.18;44.50;101471.19;5022272;28;20071;-69
2023/06/12 00:03:47;;;;;;;7.30;5.07;;;;;;;23.13;44.92;101476.69;5025589;28;20037;-69
2023/06/12 00:06:16;;;;;;;7.03;4.85;;;;;;;23.05;44.69;101472.41;5021928;28;20721;-69
2023/06/12 00:08:42;;;;;;;8.82;4.93;;;;;;;23.03;45.08;101471.84;5028582;28;20033;-69
2023/06/12 00:11:12;;;;;;;13.25;5.00;;;;;;;22.99;45.35;101470.69;5029682;28;20418;-70
2023/06/12 00:13:45;;;;;;;7.97;4.63;;;;;;;22.91;45.04;101473.97;5021164;28;20414;-69
2023/06/12 00:16:10;;;;;;;11.02;5.15;;;;;;;22.86;45.38;101476.69;5024163;28;20033;-69
2023/06/12 00:18:38;;;;;;;11.10;5.07;;;;;;;22.81;45.71;101468.25;5023964;28;20044;-69
2023/06/12 00:21:05;;;;;;;8.85;5.43;;;;;;;22.79;45.66;101469.63;5027019;28;20021;-69
2023/06/12 00:23:30;;;;;;;11.95;5.07;;;;;;;22.69;45.94;101464.78;5023768;28;20025;-70
2023/06/12 00:25:56;;;;;;;7.50;5.30;;;;;;;22.67;46.06;101468.94;5023847;28;20801;-70
2023/06/12 00:28:21;;;;;;;9.90;5.40;;;;;;;22.59;46.54;101474.97;5027422;28;20275;-68
2023/06/12 00:30:47;;;;;;;5.17;4.40;;;;;;;22.59;46.64;101475.81;5022565;28;20137;-69
2023/06/12 00:33:12;;;;;;;6.43;4.67;;;;;;;22.50;46.50;101471.78;5027374;28;20512;-69
2023/06/12 00:35:38;;;;;;;9.33;5.27;;;;;;;22.47;47.08;101471.47;5026433;28;20040;-69
2023/06/12 00:38:03;;;;;;;8.77;5.20;;;;;;;22.43;47.10;101475.84;5023527;28;20109;-69
2023/06/12 00:40:28;;;;;;;6.30;4.57;;;;;;;22.39;46.69;101474.66;5022664;28;20492;-68
2023/06/12 00:42:54;;;;;;;11.50;5.20;;;;;;;22.28;47.32;101473.72;5027071;28;20025;-69
2023/06/12 00:45:21;;;;;;;12.30;4.70;;;;;;;22.20;47.60;101485.31;5023385;28;20027;-69
2023/06/12 00:47:51;;;;;;;6.53;5.00;;;;;;;22.22;47.85;101476.69;5025457;28;20025;-69
2023/06/12 00:50:18;;;;;;;13.40;5.00;;;;;;;22.14;47.72;101468.78;5024503;28;20481;-70
2023/06/12 00:52:49;;;;;;;6.22;4.93;;;;;;;22.10;47.91;101474.00;5023193;28;20029;-69
2023/06/12 00:55:15;;;;;;;10.98;5.40;;;;;;;22.05;48.15;101482.31;5021247;28;20184;-69
2023/06/12 00:57:43;;;;;;;8.23;5.25;;;;;;;22.03;48.50;101483.69;5023425;28;20473;-69
2023/06/12 01:00:11;;;;;;;15.25;5.13;;;;;;;21.97;48.48;101477.16;5023342;28;20029;-69
2023/06/12 01:02:42;;;;;;;7.85;5.03;;;;;;;21.87;48.65;101477.00;5020664;28;20029;-69
2023/06/12 01:05:10;;;;;;;7.50;4.63;;;;;;;21.82;49.47;101474.16;5021365;28;20088;-69
2023/06/12 01:07:57;;;;;;;12.18;5.13;;;;;;;21.76;48.98;101477.97;5022972;28;20033;-68
2023/06/12 01:10:36;;;;;;;10.90;5.23;;;;;;;21.78;48.97;101478.53;5026839;28;20026;-69
2023/06/12 01:13:03;;;;;;;18.83;6.40;;;;;;;21.69;49.07;101474.50;5025764;28;20821;-69
2023/06/12 01:15:29;;;;;;;11.15;7.40;;;;;;;21.71;49.33;101471.47;5022160;28;20034;-69
2023/06/12 01:17:58;;;;;;;10.98;9.32;;;;;;;21.65;49.51;101476.06;5023103;28;20037;-69
2023/06/12 01:20:24;;;;;;;16.20;9.80;;;;;;;21.61;49.49;101477.69;5022676;28;20040;-69
2023/06/12 01:22:57;;;;;;;14.95;10.25;;;;;;;21.60;49.62;101477.97;5023632;28;20033;-69
2023/06/12 01:25:51;;;;;;;14.30;9.32;;;;;;;21.53;49.83;101482.84;5021619;28;20092;-69
2023/06/12 01:28:26;;;;;;;10.90;7.63;;;;;;;21.40;50.18;101481.22;5023746;28;20025;-69
2023/06/12 01:31:13;;;;;;;8.60;6.38;;;;;;;21.38;50.38;101482.56;5025074;28;20042;-69
2023/06/12 01:33:42;;;;;;;8.25;5.65;;;;;;;21.33;50.57;101482.47;5021918;28;20433;-69
2023/06/12 01:36:13;;;;;;;10.60;5.68;;;;;;;21.31;50.51;101493.91;5021521;28;20567;-70
2023/06/12 01:38:41;;;;;;;18.85;5.38;;;;;;;21.26;51.02;101496.59;5024166;28;20124;-70
2023/06/12 01:41:08;;;;;;;8.95;5.50;;;;;;;21.23;50.77;101491.53;5026458;28;20081;-70
2023/06/12 01:43:36;;;;;;;11.75;5.22;;;;;;;21.20;50.94;101485.59;5019317;28;20030;-70
2023/06/12 01:46:03;;;;;;;11.45;5.68;;;;;;;21.13;51.24;101487.72;5023243;28;20044;-69
2023/06/12 01:48:30;;;;;;;8.48;5.35;;;;;;;21.10;51.42;101491.84;5027021;28;20032;-70
2023/06/12 01:50:55;;;;;;;8.45;5.50;;;;;;;21.09;51.25;101492.94;5021994;28;20472;-70
2023/06/12 01:53:21;;;;;;;7.27;5.00;;;;;;;21.04;51.82;101492.00;5025737;28;20042;-70
2023/06/12 01:55:49;;;;;;;11.43;5.80;;;;;;;21.00;51.87;101488.00;5024642;28;20094;-70
2023/06/12 01:58:15;;;;;;;7.45;5.13;;;;;;;20.94;52.13;101487.09;5022633;28;20068;-70
2023/06/12 02:00:40;;;;;;;9.20;5.30;;;;;;;20.94;52.31;101491.81;5023819;28;20034;-69
2023/06/12 02:03:06;;;;;;;11.13;5.50;;;;;;;20.91;52.22;101495.09;5024547;28;20742;-69
2023/06/12 02:05:31;;;;;;;10.83;6.00;;;;;;;20.85;52.55;101493.25;5017723;28;20025;-70
2023/06/12 02:07:57;;;;;;;8.57;5.73;;;;;;;20.78;52.89;101493.41;5024683;28;20049;-70
2023/06/12 02:10:22;;;;;;;10.07;5.17;;;;;;;20.74;53.30;101491.34;5021197;28;20080;-69
2023/06/12 02:12:48;;;;;;;10.00;5.20;;;;;;;20.72;53.22;101488.00;5023114;28;20065;-69
2023/06/12 02:15:13;;;;;;;9.17;5.23;;;;;;;20.68;53.27;101489.56;5020663;28;20412;-69
2023/06/12 02:17:39;;;;;;;10.83;5.97;;;;;;;20.61;53.66;101495.31;5019864;28;20487;-69
2023/06/12 02:20:05;;;;;;;10.18;6.20;;;;;;;20.57;53.85;101496.03;5023200;28;20061;-69
2023/06/12 02:22:31;;;;;;;9.13;6.10;;;;;;;20.53;53.86;101489.25;5024136;28;20029;-69
2023/06/12 02:24:56;;;;;;;11.63;6.40;;;;;;;20.61;53.37;101486.09;5018780;28;20099;-69
2023/06/12 02:27:22;;;;;;;13.60;5.57;;;;;;;20.50;54.18;101484.19;5026080;28;20374;-70
2023/06/12 02:29:48;;;;;;;14.43;5.90;;;;;;;20.49;54.10;101494.47;5024107;28;20033;-69
2023/06/12 02:32:13;;;;;;;11.30;6.03;;;;;;;20.44;54.61;101496.31;5017043;28;20042;-68
2023/06/12 02:34:39;;;;;;;7.57;5.77;;;;;;;20.44;54.30;101483.22;5018884;28;20484;-69
2023/06/12 02:37:08;;;;;;;10.45;5.85;;;;;;;20.37;54.81;101490.03;5020997;28;20033;-69
2023/06/12 02:39:35;;;;;;;7.32;5.65;;;;;;;20.27;55.10;101495.41;5023720;28;20404;-69
2023/06/12 02:42:01;;;;;;;12.10;5.43;;;;;;;20.31;54.80;101499.34;5025032;28;20025;-69
2023/06/12 02:44:27;;;;;;;13.27;6.22;;;;;;;20.19;55.33;101498.53;5022653;28;20108;-69
2023/06/12 02:46:58;;;;;;;9.57;6.07;;;;;;;20.14;55.79;101495.63;5023362;28;20612;-69
2023/06/12 02:49:29;;;;;;;8.20;6.03;;;;;;;20.05;56.43;101485.94;5021927;28;20385;-68
2023/06/12 02:51:55;;;;;;;9.32;5.88;;;;;;;20.05;56.23;101489.56;5025479;28;20026;-69
2023/06/12 02:54:23;;;;;;;8.57;6.13;;;;;;;19.95;56.19;101494.06;5020308;28;20427;-69
2023/06/12 02:56:49;;;;;;;7.55;5.72;;;;;;;19.88;57.04;101484.97;5026425;28;20025;-70
2023/06/12 02:59:17;;;;;;;8.75;5.75;;;;;;;19.93;56.07;101490.66;5027597;28;20033;-70
2023/06/12 03:01:45;;;;;;;8.38;5.93;;;;;;;19.90;56.82;101491.16;5023090;28;20112;-69
2023/06/12 03:04:15;;;;;;;16.50;6.40;;;;;;;19.94;56.82;101495.13;5020464;28;20128;-70
2023/06/12 03:06:43;;;;;;;8.40;5.88;;;;;;;19.92;56.94;101486.19;5022052;28;20136;-70
2023/06/12 03:09:09;;;;;;;13.25;6.90;;;;;;;19.95;56.41;101492.13;5019956;28;20034;-70
2023/06/12 03:11:36;;;;;;;8.43;6.20;;;;;;;19.95;56.54;101485.72;5025597;28;20500;-70
2023/06/12 03:14:02;;;;;;;16.02;6.00;;;;;;;19.92;56.78;101492.63;5024046;28;20453;-69
2023/06/12 03:16:27;;;;;;;6.43;5.45;;;;;;;19.91;56.68;101490.06;5032293;28;20069;-69
2023/06/12 03:18:53;;;;;;;14.50;6.27;;;;;;;19.97;56.80;101500.22;5022122;28;20033;-69
2023/06/12 03:21:18;;;;;;;11.13;6.17;;;;;;;19.92;56.76;101494.53;5024038;28;20036;-69
2023/06/12 03:23:44;;;;;;;9.40;5.87;;;;;;;19.91;57.00;101502.03;5029641;28;20034;-69
2023/06/12 03:26:09;;;;;;;8.13;6.13;;;;;;;19.88;57.03;101496.97;5028112;28;20083;-70
2023/06/12 03:28:35;;;;;;;9.37;5.50;;;;;;;19.86;57.14;101490.78;5031072;28;20027;-70
2023/06/12 03:31:00;;;;;;;12.37;5.67;;;;;;;19.82;57.60;101497.06;5024455;28;20085;-71
2023/06/12 03:33:26;;;;;;;9.10;6.63;;;;;;;19.79;57.35;101498.41;5026057;28;20029;-69
2023/06/12 03:35:52;;;;;;;11.43;6.15;;;;;;;19.74;58.10;101494.69;5024615;28;20025;-70
2023/06/12 03:38:18;;;;;;;12.17;7.87;;;;;;;19.76;57.47;101506.38;5024906;28;20547;-70
2023/06/12 03:40:43;;;;;;;9.90;6.00;;;;;;;19.74;57.77;101500.25;5038977;28;20021;-70
2023/06/12 03:43:09;;;;;;;10.43;5.77;;;;;;;19.72;58.06;101496.84;5029231;28;20033;-69
2023/06/12 03:45:34;;;;;;;10.33;5.87;;;;;;;19.69;58.04;101512.06;5024165;28;20030;-70
2023/06/12 03:47:59;;;;;;;10.77;6.20;;;;;;;19.70;58.15;101510.13;5027536;28;20128;-70
2023/06/12 03:50:25;;;;;;;9.97;6.10;;;;;;;19.68;58.34;101513.16;5027264;28;20037;-70
2023/06/12 03:52:51;;;;;;;10.57;6.40;;;;;;;19.72;58.17;101519.94;5022010;28;20037;-70
2023/06/12 03:55:16;;;;;;;10.07;5.77;;;;;;;19.69;58.17;101519.56;5045496;28;20072;-70
2023/06/12 03:57:42;;;;;;;12.17;6.13;;;;;;;19.66;58.67;101520.03;5026022;28;20431;-70
2023/06/12 04:00:08;;;;;;;14.53;7.23;;;;;;;19.69;58.46;101522.34;5022935;28;20025;-70
2023/06/12 04:02:34;;;;;;;9.98;5.32;;;;;;;19.73;58.21;101520.75;5026367;28;20077;-70
2023/06/12 04:05:00;;;;;;;11.82;6.00;;;;;;;19.74;58.33;101516.91;5028620;28;20029;-70
2023/06/12 04:07:26;;;;;;;15.00;6.22;;;;;;;19.79;58.31;101530.94;5029898;28;20358;-70
2023/06/12 04:09:51;;;;;;;13.00;5.80;;;;;;;19.75;57.98;101522.22;5025965;28;20033;-70
2023/06/12 04:12:17;;;;;;;14.03;6.37;;;;;;;19.79;58.38;101526.22;5025673;28;20033;-75
2023/06/12 04:14:42;;;;;;;11.90;5.63;;;;;;;19.80;58.47;101527.91;5030979;28;20460;-75
2023/06/12 04:17:08;;;;;;;6.67;5.63;;;;;;;19.83;58.09;101524.66;5024501;28;20083;-74
2023/06/12 04:19:35;;;;;;;8.93;6.03;;;;;;;19.86;57.99;101523.31;5023546;28;20059;-74
2023/06/12 04:22:03;;;;;;;9.98;5.70;;;;;;;19.90;57.11;101524.53;5026507;28;20037;-75
2023/06/12 04:24:30;;;;;;;10.10;5.88;;;;;;;19.88;58.43;101530.34;5027895;28;20036;-74
2023/06/12 04:27:01;;;;;;;11.05;5.95;;;;;;;19.89;58.39;101528.38;5024792;28;20029;-75
2023/06/12 04:29:28;;;;;;;8.18;5.82;;;;;;;19.94;58.08;101528.50;5022749;28;20481;-74
2023/06/12 04:31:55;;;;;;;8.27;6.60;;;;;;;19.93;58.39;101530.47;5023137;28;20046;-75
2023/06/12 04:34:21;;;;;;;7.32;5.88;;;;;;;19.96;57.84;101526.34;5027576;28;20030;-75
2023/06/12 04:36:47;;;;;;;9.70;5.90;;;;;;;20.09;57.63;101535.34;5026343;28;20028;-75
2023/06/12 04:39:13;;;;;;;15.77;6.18;;;;;;;20.13;56.97;101533.75;5025098;28;20028;-75
2023/06/12 04:41:40;;;;;;;8.13;6.18;;;;;;;20.22;57.08;101525.91;5021884;28;20481;-75
2023/06/12 04:44:06;;;;;;;11.57;5.70;;;;;;;20.25;57.13;101530.94;5022649;28;20026;-75
2023/06/12 04:46:32;;;;;;;12.68;6.43;;;;;;;20.28;57.16;101528.53;5026866;28;20469;-75
2023/06/12 04:48:59;;;;;;;8.65;5.97;;;;;;;20.28;56.59;101522.94;5029873;28;20053;-76
2023/06/12 04:51:25;;;;;;;9.25;6.07;;;;;;;20.39;55.60;101532.41;5025613;28;20374;-75
2023/06/12 04:53:53;;;;;;;8.32;6.35;;;;;;;20.42;55.99;101537.44;5023140;28;20499;-75
2023/06/12 04:56:21;;;;;;;9.88;6.70;;;;;;;20.48;55.84;101528.16;5027772;28;20037;-75
2023/06/12 04:58:47;;;;;;;10.80;6.10;;;;;;;20.50;55.91;101539.88;5058072;28;20025;-75
2023/06/12 05:01:14;;;;;;;12.83;6.10;;;;;;;20.57;56.21;101532.22;5027854;28;20048;-76
2023/06/12 05:03:43;;;;;;;11.05;6.00;;;;;;;20.63;55.74;101542.38;5021029;28;20275;-76
2023/06/12 05:06:09;;;;;;;9.80;6.15;;;;;;;20.74;55.12;101536.78;5023962;28;20037;-74
2023/06/12 05:08:37;;;;;;;13.70;5.53;;;;;;;20.89;55.10;101544.63;5029086;28;20099;-76
2023/06/12 05:11:06;;;;;;;11.23;5.65;;;;;;;21.11;54.90;101542.84;5026953;28;20049;-75
2023/06/12 05:13:31;;;;;;;12.50;6.28;;;;;;;21.62;53.39;101545.47;5027396;28;20035;-75
2023/06/12 05:15:57;;;;;;;8.00;6.23;;;;;;;22.43;51.40;101542.88;5023369;28;20397;-76
2023/06/12 05:18:22;;;;;;;12.47;5.53;;;;;;;23.48;49.42;101544.19;5025937;28;20297;-76
2023/06/12 05:20:47;;;;;;;11.37;6.43;;;;;;;24.21;46.11;101547.91;5028248;28;20025;-75
2023/06/12 05:23:13;;;;;;;8.67;5.80;;;;;;;25.08;44.97;101550.91;5024295;28;20396;-75
2023/06/12 05:25:38;;;;;;;13.10;6.03;;;;;;;25.45;43.85;101557.22;5023510;28;20072;-75
2023/06/12 05:28:04;;;;;;;15.50;5.93;;;;;;;25.89;42.83;101553.59;5025868;28;20388;-74
2023/06/12 05:30:29;;;;;;;10.23;5.93;;;;;;;26.48;41.33;101548.19;5025144;28;20722;-74
2023/06/12 05:32:55;;;;;;;9.32;5.70;;;;;;;26.84;40.65;101556.25;5026842;28;20294;-73
2023/06/12 05:35:21;;;;;;;11.95;5.53;;;;;;;27.40;39.75;101556.81;5027206;28;20033;-74
2023/06/12 05:37:46;;;;;;;11.90;5.72;;;;;;;27.23;39.87;101551.59;5030262;28;20087;-74
2023/06/12 05:40:13;;;;;;;;;;;;;;;27.56;39.03;101549.97;5028252;28;20038;-75
2023/06/12 05:42:38;;;;;;;8.70;5.00;;;;;;;28.18;37.68;101550.03;5024964;28;20004;-74
2023/06/12 05:45:05;;;;;;;9.93;4.88;;;;;;;28.31;36.91;101543.69;5025168;28;20113;-74
2023/06/12 05:47:30;;;;;;;9.25;5.07;;;;;;;28.71;36.53;101548.94;5025631;28;20036;-75
2023/06/12 05:49:56;;;;;;;;;;;;;;;28.97;36.11;101551.16;5027265;28;20116;-70
2023/06/12 05:52:21;;;;;;;9.95;5.80;;;;;;;29.03;35.78;101558.41;5024647;28;19913;-72
2023/06/12 05:54:46;;;;;;;;;;;;;;;28.84;35.55;101556.66;5023897;28;20116;-72
2023/06/12 05:57:13;;;;;;;6.28;4.80;;;;;;;28.45;35.20;101556.84;5022926;28;19921;-70
2023/06/12 05:59:39;;;;;;;13.82;5.07;;;;;;;28.67;36.15;101562.78;5024418;28;20043;-70
2023/06/12 06:02:04;;;;;;;;;;;;;;;28.91;35.60;101562.78;5024880;28;20025;-71
2023/06/12 06:04:30;;;;;;;9.63;4.85;;;;;;;28.61;35.34;101563.16;5041528;28;19916;-71
2023/06/12 06:06:55;;;;;;;;;;;;;;;28.92;35.13;101561.66;5027500;28;20033;-71
2023/06/12 06:09:21;;;;;;;9.75;5.07;;;;;;;28.82;35.86;101570.22;5025565;28;20296;-71
2023/06/12 06:11:46;;;;;;;;;;;;;;;27.90;37.21;101568.59;5027497;28;20026;-71
2023/06/12 06:14:12;;;;;;;8.73;4.18;;;;;;;28.01;37.11;101560.91;5023621;28;20442;-71
2023/06/12 06:16:37;;;;;;;;;;;;;;;27.55;37.71;101563.22;5023988;28;20156;-71
2023/06/12 06:19:03;;;;;;;22.50;5.35;;;;;;;27.68;36.94;101570.16;5024009;28;20372;-71
2023/06/12 06:21:29;;;;;;;;;;;;;;;27.87;35.97;101562.72;5023475;28;20049;-72
2023/06/12 06:23:54;;;;;;;13.93;5.10;;;;;;;28.65;36.72;101558.59;5023665;28;19912;-69
2023/06/12 06:26:19;;;;;;;;;;;;;;;28.66;36.60;101574.38;5024858;28;20104;-69
2023/06/12 06:28:45;;;;;;;11.90;4.95;;;;;;;29.17;35.31;101573.47;5023320;28;20030;-70
2023/06/12 06:31:12;;;;;;;10.75;5.15;;;;;;;29.57;34.45;101566.44;5023081;28;20049;-70
2023/06/12 06:33:37;;;;;;;10.65;4.95;;;;;;;29.25;33.69;101577.59;5027913;28;20026;-70
2023/06/12 06:36:03;;;;;;;;;;;;;;;29.40;34.22;101566.91;5025664;28;20539;-70
2023/06/12 06:38:28;;;;;;;15.45;5.07;;;;;;;30.17;32.91;101571.09;5024069;28;19929;-70
2023/06/12 06:40:54;;;;;;;8.65;4.68;;;;;;;30.57;33.60;101570.34;5023254;28;20025;-70
2023/06/12 06:43:20;;;;;;;11.07;4.40;;;;;;;30.84;33.09;101568.41;5037935;28;20076;-70
2023/06/12 06:45:45;;;;;;;6.53;4.72;;;;;;;31.07;32.05;101573.03;5023715;28;20092;-70
2023/06/12 06:48:12;;;;;;;9.15;4.72;;;;;;;31.24;31.89;101573.25;5027499;28;20025;-70
2023/06/12 06:50:39;;;;;;;9.95;4.80;;;;;;;31.27;31.35;101577.44;5025739;28;20111;-70
2023/06/12 06:53:04;;;;;;;10.65;4.18;;;;;;;31.27;31.74;101564.09;5025325;28;20055;-69
2023/06/12 06:55:30;;;;;;;11.93;4.53;;;;;;;31.46;31.01;101569.63;5029765;28;20025;-70
2023/06/12 06:57:56;;;;;;;6.70;4.63;;;;;;;31.26;31.20;101562.41;5029019;28;20021;-69
2023/06/12 07:00:24;;;;;;;11.55;4.75;;;;;;;30.75;30.22;101575.13;5026790;28;20060;-69
2023/06/12 07:02:50;;;;;;;17.63;4.20;;;;;;;31.02;31.65;101572.28;5025424;28;20102;-69
2023/06/12 07:05:16;;;;;;;11.57;4.35;;;;;;;30.87;30.24;101573.44;5025297;28;20114;-70
2023/06/12 07:07:46;;;;;;;5.40;4.07;;;;;;;31.13;30.71;101576.56;5025374;28;20419;-70
2023/06/12 07:10:11;;;;;;;12.43;4.03;;;;;;;30.79;31.18;101567.69;5029723;28;20032;-70
2023/06/12 07:12:36;;;;;;;8.38;4.43;;;;;;;30.97;31.40;101570.41;5031986;28;20029;-70
2023/06/12 07:15:03;;;;;;;8.80;4.32;;;;;;;30.60;31.54;101569.72;5026716;28;20428;-70
2023/06/12 07:17:29;;;;;;;13.52;4.75;;;;;;;30.97;30.81;101564.75;5032538;28;20139;-71
2023/06/12 07:19:54;;;;;;;;;;;;;;;30.66;30.70;101574.16;5027531;28;20583;-70
2023/06/12 07:22:20;;;;;;;13.20;4.53;;;;;;;31.28;31.47;101565.78;5024089;28;19917;-70
2023/06/12 07:24:45;;;;;;;7.78;4.20;;;;;;;30.92;29.60;101566.81;5030907;28;20017;-71
2023/06/12 07:27:11;;;;;;;5.43;4.35;;;;;;;31.44;30.81;101564.28;5021149;28;20105;-70
2023/06/12 07:29:36;;;;;;;;;;;;;;;31.47;30.58;101562.81;5027638;28;20029;-71
2023/06/12 07:32:02;;;;;;;11.68;4.32;;;;;;;31.25;30.58;101557.06;5024578;28;19921;-70
2023/06/12 07:34:27;;;;;;;;;;;;;;;30.75;31.44;101560.97;5025627;28;20444;-70
2023/06/12 07:36:52;;;;;;;6.95;4.03;;;;;;;30.51;31.82;101557.47;5027014;28;19970;-70
2023/06/12 07:39:18;;;;;;;;;;;;;;;30.38;30.77;101566.75;5026842;28;20477;-70
2023/06/12 07:41:44;;;;;;;8.60;4.90;;;;;;;30.21;31.48;101561.72;5024987;28;19913;-70
2023/06/12 07:44:12;;;;;;;;;;;;;;;29.72;31.30;101557.72;5028776;28;20025;-70
2023/06/12 07:46:40;;;;;;;10.90;4.25;;;;;;;29.96;31.32;101556.47;5026446;28;20043;-70
2023/06/12 07:49:06;;;;;;;6.40;4.10;;;;;;;29.87;31.87;101557.47;5027498;28;20049;-70
2023/06/12 07:51:31;;;;;;;12.90;4.75;;;;;;;30.32;32.08;101559.53;5030271;28;20616;-71
2023/06/12 07:53:56;;;;;;;9.38;4.03;;;;;;;30.15;32.30;101564.94;5025916;28;20053;-70
2023/06/12 07:56:22;;;;;;;15.65;4.85;;;;;;;29.83;32.21;101553.59;5022468;28;20033;-70
2023/06/12 07:58:48;;;;;;;11.35;4.63;;;;;;;30.09;33.08;101554.81;5030646;28;20424;-71
2023/06/12 08:01:13;;;;;;;;;;;;;;;29.99;32.91;101558.66;5024566;28;20298;-70
2023/06/12 08:03:39;;;;;;;13.82;5.53;;;;;;;30.19;32.79;101554.69;5039319;28;20016;-70
2023/06/12 08:06:13;;;;;;;7.30;4.90;;;;;;;29.94;32.16;101557.91;5016913;28;20362;-70
2023/06/12 08:08:46;;;;;;;12.93;4.72;;;;;;;30.27;32.29;101562.44;5035500;28;20025;-70
2023/06/12 08:11:13;;;;;;;7.60;4.68;;;;;;;30.21;32.05;101569.34;5030116;28;20076;-70
2023/06/12 08:13:39;;;;;;;10.00;4.22;;;;;;;29.82;32.70;101558.38;5031065;28;20397;-70
2023/06/12 08:16:05;;;;;;;6.90;4.30;;;;;;;29.88;32.20;101559.16;5059999;28;20544;-70
2023/06/12 08:18:30;;;;;;;12.00;4.65;;;;;;;29.65;33.36;101565.72;5029079;28;20087;-70
2023/06/12 08:21:08;;;;;;;11.98;4.68;;;;;;;29.07;32.98;101567.94;5030886;28;20045;-69
2023/06/12 08:23:34;;;;;;;7.95;4.47;;;;;;;29.28;33.28;101574.19;5025579;28;20033;-70
2023/06/12 08:26:00;;;;;;;8.88;5.03;;;;;;;29.44;32.98;101562.34;5021304;28;20029;-70
2023/06/12 08:28:25;;;;;;;7.32;4.35;;;;;;;29.60;32.58;101558.19;5024014;28;20052;-69
2023/06/12 08:30:51;;;;;;;12.43;4.68;;;;;;;28.88;32.57;101563.38;5021516;28;20068;-71
2023/06/12 08:33:18;;;;;;;8.73;4.45;;;;;;;29.03;32.17;101566.03;5026771;28;20433;-70
2023/06/12 08:35:44;;;;;;;6.85;4.38;;;;;;;29.07;32.52;101570.78;5024537;28;20060;-70
2023/06/12 08:38:10;;;;;;;6.28;4.03;;;;;;;29.12;32.16;101564.25;5027686;28;20377;-70
2023/06/12 08:40:35;;;;;;;17.30;4.47;;;;;;;28.90;32.15;101558.25;5024068;28;20025;-69
2023/06/12 08:43:00;;;;;;;10.57;4.95;;;;;;;29.17;32.04;101565.00;5024302;28;20045;-69
2023/06/12 08:45:26;;;;;;;19.77;5.15;;;;;;;29.14;31.73;101557.13;5027842;28;20041;-69
2023/06/12 08:47:53;;;;;;;9.00;4.65;;;;;;;29.29;32.14;101568.22;5054804;28;20030;-69
2023/06/12 08:50:20;;;;;;;12.27;4.35;;;;;;;29.48;32.07;101560.59;5035105;28;20037;-69
2023/06/12 08:52:50;;;;;;;8.20;4.32;;;;;;;29.60;32.76;101549.69;5021680;28;20431;-69
2023/06/12 08:55:16;;;;;;;8.18;4.07;;;;;;;29.54;31.67;101552.91;5023528;28;20050;-69
2023/06/12 08:57:42;;;;;;;7.38;4.30;;;;;;;29.35;32.07;101555.69;5024312;28;20032;-69
2023/06/12 09:00:15;;;;;;;16.33;4.57;;;;;;;29.35;32.15;101552.88;5027974;28;20128;-69
2023/06/12 09:02:49;;;;;;;10.32;4.68;;;;;;;29.82;31.81;101551.91;5022101;28;20385;-69
2023/06/12 09:05:23;;;;;;;8.82;4.90;;;;;;;29.96;31.44;101549.94;5023025;28;20036;-69
2023/06/12 09:07:50;;;;;;;10.68;4.68;;;;;;;29.82;31.06;101534.94;5027687;28;20551;-69
2023/06/12 09:10:16;;;;;;;16.70;4.70;;;;;;;29.75;32.28;101542.97;5024984;28;20461;-69
2023/06/12 09:12:43;;;;;;;8.15;4.38;;;;;;;30.02;31.30;101543.06;5025408;28;20036;-69
2023/06/12 09:15:10;;;;;;;10.07;4.40;;;;;;;29.88;30.79;101536.53;5025697;28;20393;-69
2023/06/12 09:17:37;;;;;;;8.90;4.40;;;;;;;30.03;31.41;101547.59;5022289;28;20081;-70
2023/06/12 09:20:04;;;;;;;11.55;4.55;;;;;;;29.93;31.84;101542.09;5026631;28;20033;-69
2023/06/12 09:22:30;;;;;;;11.75;4.93;;;;;;;30.08;31.09;101536.19;5021630;28;20030;-70
2023/06/12 09:24:57;;;;;;;9.32;4.00;;;;;;;29.96;30.84;101542.31;5025162;28;20025;-70
2023/06/12 09:27:22;;;;;;;9.98;4.43;;;;;;;30.40;30.58;101541.84;5052762;28;20041;-69
2023/06/12 09:29:48;;;;;;;8.23;4.50;;;;;;;30.33;30.48;101544.22;5028716;28;20037;-69
2023/06/12 09:32:13;;;;;;;;;;;;;;;30.03;30.76;101542.75;5023103;28;20076;-70
2023/06/12 09:34:45;;;;;;;8.77;4.40;;;;;;;30.29;30.84;101537.50;5023933;28;19948;-70
2023/06/12 09:37:12;;;;;;;7.85;4.55;;;;;;;30.41;31.09;101543.53;5020935;28;20025;-70
2023/06/12 09:39:38;;;;;;;10.05;3.92;;;;;;;30.34;29.21;101543.06;5027567;28;20057;-70
2023/06/12 09:42:03;;;;;;;13.75;4.40;;;;;;;30.32;30.27;101542.56;5028361;28;20115;-70
2023/06/12 09:44:29;;;;;;;;;;;;;;;30.63;29.08;101549.31;5028390;28;20135;-70
2023/06/12 09:47:03;;;;;;;10.15;4.00;;;;;;;30.46;28.18;101541.41;5025802;28;19913;-70
2023/06/12 09:49:29;;;;;;;9.88;4.35;;;;;;;30.63;27.49;101546.47;5023330;28;20583;-70
2023/06/12 09:51:58;;;;;;;7.78;4.05;;;;;;;30.85;27.84;101549.44;5022020;28;20030;-70
2023/06/12 09:54:27;;;;;;;10.55;4.00;;;;;;;30.52;26.79;101545.81;5021470;28;20056;-70
2023/06/12 09:56:55;;;;;;;7.55;3.70;;;;;;;30.88;27.33;101543.16;5017695;28;20026;-70
2023/06/12 09:59:22;;;;;;;9.20;4.18;;;;;;;30.88;26.97;101546.00;5052741;28;20612;-68
2023/06/12 10:01:51;;;;;;;11.90;4.07;;;;;;;30.63;27.30;101550.13;5018846;28;20432;-68
2023/06/12 10:04:37;;;;;;;5.95;3.88;;;;;;;30.39;26.43;101552.31;5027500;28;20105;-69
2023/06/12 10:07:08;;;;;;;7.10;3.97;;;;;;;31.00;26.37;101541.44;5025226;28;20348;-70
2023/06/12 10:09:34;;;;;;;9.90;4.20;;;;;;;31.04;26.47;101531.19;5024936;28;20374;-69
2023/06/12 10:11:59;;;;;;;6.40;3.60;;;;;;;31.48;26.69;101542.63;5027877;28;20819;-69
2023/06/12 10:14:26;;;;;;;;;;;;;;;31.72;25.39;101545.19;5029834;28;20116;-70
2023/06/12 10:16:57;;;;;;;18.15;3.65;;;;;;;31.90;24.51;101530.84;5026334;28;19916;-71
2023/06/12 10:19:26;;;;;;;6.13;3.28;;;;;;;31.65;23.73;101541.97;5026484;28;20117;-70
2023/06/12 10:21:55;;;;;;;6.22;3.40;;;;;;;31.49;24.54;101533.00;5019849;28;20469;-71
2023/06/12 10:24:22;;;;;;;7.78;3.60;;;;;;;31.46;23.85;101538.44;5026528;28;20025;-70
2023/06/12 10:26:53;;;;;;;4.85;3.35;;;;;;;31.34;23.22;101530.53;5024963;28;20025;-71
2023/06/12 10:29:29;;;;;;;8.80;3.80;;;;;;;31.51;23.07;101538.31;5025740;28;20065;-70
2023/06/12 10:32:14;;;;;;;4.47;3.60;;;;;;;31.45;22.26;101540.47;5023786;28;20069;-71
2023/06/12 10:34:43;;;;;;;8.45;3.38;;;;;;;31.43;21.42;101527.78;5023258;28;20108;-71
2023/06/12 10:37:42;;;;;;;6.90;3.65;;;;;;;31.48;22.27;101525.63;5020572;28;20025;-70
2023/06/12 10:40:11;;;;;;;6.63;3.47;;;;;;;31.79;22.57;101534.28;5027355;28;20046;-69
2023/06/12 10:42:54;;;;;;;8.73;3.50;;;;;;;31.51;22.47;101524.16;5024444;28;20473;-70
2023/06/12 10:45:28;;;;;;;3.50;3.15;;;;;;;31.48;22.19;101519.97;5023212;28;20038;-70
2023/06/12 10:48:05;;;;;;;9.20;3.70;;;;;;;31.88;21.65;101513.34;5025215;28;20147;-73
2023/06/12 10:50:58;;;;;;;10.18;3.83;;;;;;;31.95;22.23;101515.72;5024769;28;20415;-72
2023/06/12 10:53:26;;;;;;;4.88;3.15;;;;;;;32.23;22.42;101503.88;5018400;28;20041;-72
2023/06/12 10:56:10;;;;;;;6.50;3.55;;;;;;;32.17;21.23;101510.84;5018707;28;20041;-73
2023/06/12 10:58:41;;;;;;;13.57;3.38;;;;;;;31.79;21.06;101503.09;5019149;28;20496;-73
2023/06/12 11:01:14;;;;;;;7.38;3.50;;;;;;;32.05;20.88;101512.59;5023890;28;20028;-71
2023/06/12 11:03:43;;;;;;;8.85;3.42;;;;;;;32.07;20.76;101513.13;5012694;28;20053;-72
2023/06/12 11:06:20;;;;;;;8.43;3.60;;;;;;;31.67;20.65;101511.28;5025392;28;20029;-69
2023/06/12 11:08:46;;;;;;;3.40;3.10;;;;;;;31.72;20.30;101500.69;5021202;28;20022;-69
2023/06/12 11:11:13;;;;;;;13.60;3.42;;;;;;;31.66;21.23;101498.28;5021479;28;20021;-69
2023/06/12 11:13:40;;;;;;;7.28;3.72;;;;;;;32.35;21.08;101497.63;5025291;28;20392;-70
2023/06/12 11:16:05;;;;;;;7.68;2.92;;;;;;;32.45;19.46;101506.72;5024649;28;20040;-70
2023/06/12 11:18:30;;;;;;;;;;;;;;;32.18;17.79;101497.50;5021800;28;20033;-70
2023/06/12 11:20:57;;;;;;;6.68;2.80;;;;;;;32.66;18.63;101498.44;5019181;28;20430;-70
2023/06/12 11:23:26;;;;;;;7.78;3.25;;;;;;;32.80;18.61;101502.03;5022185;28;20087;-69
2023/06/12 11:25:59;;;;;;;4.65;2.97;;;;;;;32.67;18.60;101514.28;5027817;28;20429;-69
2023/06/12 11:28:28;;;;;;;3.63;2.75;;;;;;;32.93;18.81;101501.91;5018267;28;20026;-69